CDNT2: Canadian R Nr Canadian, TX

Data processed at Sun Apr 30 2017 22:48


All information presented herein is the property of the government of the United States of America and may be revised or deleted at any time without prior notice.
Dissemination of this information without the expressed written consent of the Public Affairs Office, Tulsa District U.S. Army Corps of Engineers is strictly prohibited.
These data are gathered electronically and, as presented, have not undergone any form of quality control. These data are not guaranteed to be valid or correct.
Go to home page.
Go to station list.
Go to station map.

Upstream stations:

Downstream station:
Previous Day
Next Day
Current Day
    
SHEF ID:       CDNT2     Canadian Rv nr Canadian, TX
STATION TYPE:  

               PRECIP     STAGE  RIV-FLOW  BAT-LOAD
                   in        ft       cfs      volt
              Ccp-Rev   Ccp-Rev   Ccp-Rev   Ccp-Rev
(US/Central)
04/30 00:00      0.04      1.86        92     12.17
04/30 01:00      0.08      1.87        93     12.17
04/30 02:00      0.04      1.92        98     12.17
04/30 03:00      0.02      1.94       100     12.17
04/30 04:00      0.00      1.96       102     12.17
04/30 05:00      0.01      1.98       104     12.17
04/30 06:00      0.00      2.01       107     12.17
04/30 07:00      0.00      2.01       107     12.17
04/30 08:00      0.00      2.02       108     12.17
04/30 09:00      0.00      2.07       114     12.25
04/30 10:00      0.00      2.05       112     12.33
04/30 11:00      0.01      2.08       115     12.33
04/30 12:00      0.01      2.09       116     12.33
04/30 13:00      0.00      2.08       115     12.33
04/30 14:00      0.00      2.12       119     12.41
04/30 15:00      0.00      2.10       117     12.49
04/30 16:00      0.00      2.13       120     12.49
04/30 17:00      0.00      2.13       120     12.41
04/30 18:00      0.00      2.14       122     12.41
04/30 19:00      0.00      2.16       124     12.41
04/30 20:00      0.00      2.14       122     12.33
04/30 21:00      0.00      2.16       124     12.25
04/30 22:00      0.00      2.15       123     12.25
04/30 23:00      ----      ----      ----      ----